sensor_id;sensor_type;location;lat;lon;timestamp;P1;durP1;ratioP1;P2;durP2;ratioP2
31262;SDS011;17892;52.080;9.006;2024-02-26T00:01:23;2.13;;;0.70;;
31262;SDS011;17892;52.080;9.006;2024-02-26T00:03:49;2.65;;;0.90;;
31262;SDS011;17892;52.080;9.006;2024-02-26T00:06:15;1.20;;;0.60;;
31262;SDS011;17892;52.080;9.006;2024-02-26T00:08:40;1.35;;;0.47;;
31262;SDS011;17892;52.080;9.006;2024-02-26T00:11:06;1.33;;;0.50;;
31262;SDS011;17892;52.080;9.006;2024-02-26T00:13:32;1.67;;;0.60;;
31262;SDS011;17892;52.080;9.006;2024-02-26T00:15:57;1.98;;;0.75;;
31262;SDS011;17892;52.080;9.006;2024-02-26T00:18:23;1.60;;;0.60;;
31262;SDS011;17892;52.080;9.006;2024-02-26T00:20:49;2.15;;;0.70;;
31262;SDS011;17892;52.080;9.006;2024-02-26T00:23:15;1.38;;;0.52;;
31262;SDS011;17892;52.080;9.006;2024-02-26T00:25:41;1.17;;;0.50;;
31262;SDS011;17892;52.080;9.006;2024-02-26T00:28:08;2.13;;;0.50;;
31262;SDS011;17892;52.080;9.006;2024-02-26T00:30:35;1.17;;;0.47;;
31262;SDS011;17892;52.080;9.006;2024-02-26T00:33:00;1.50;;;0.50;;
31262;SDS011;17892;52.080;9.006;2024-02-26T00:35:26;2.15;;;0.55;;
31262;SDS011;17892;52.080;9.006;2024-02-26T00:37:52;1.00;;;0.45;;
31262;SDS011;17892;52.080;9.006;2024-02-26T00:40:18;2.22;;;0.77;;
31262;SDS011;17892;52.080;9.006;2024-02-26T00:42:43;1.58;;;0.65;;
31262;SDS011;17892;52.080;9.006;2024-02-26T00:45:11;2.53;;;0.73;;
31262;SDS011;17892;52.080;9.006;2024-02-26T00:47:37;1.52;;;0.55;;
31262;SDS011;17892;52.080;9.006;2024-02-26T00:50:06;2.80;;;0.65;;
31262;SDS011;17892;52.080;9.006;2024-02-26T00:52:33;0.98;;;0.40;;
31262;SDS011;17892;52.080;9.006;2024-02-26T00:54:59;1.85;;;0.70;;
31262;SDS011;17892;52.080;9.006;2024-02-26T00:57:25;1.17;;;0.50;;
31262;SDS011;17892;52.080;9.006;2024-02-26T00:59:51;1.52;;;0.55;;
31262;SDS011;17892;52.080;9.006;2024-02-26T01:02:16;2.35;;;1.20;;
31262;SDS011;17892;52.080;9.006;2024-02-26T01:04:42;2.55;;;1.10;;
31262;SDS011;17892;52.080;9.006;2024-02-26T01:07:08;1.98;;;1.00;;
31262;SDS011;17892;52.080;9.006;2024-02-26T01:09:34;2.28;;;1.00;;
31262;SDS011;17892;52.080;9.006;2024-02-26T01:11:59;1.90;;;0.63;;
31262;SDS011;17892;52.080;9.006;2024-02-26T01:14:27;1.65;;;0.60;;
31262;SDS011;17892;52.080;9.006;2024-02-26T01:16:53;2.47;;;0.80;;
31262;SDS011;17892;52.080;9.006;2024-02-26T01:19:19;1.67;;;0.70;;
31262;SDS011;17892;52.080;9.006;2024-02-26T01:21:44;1.95;;;0.60;;
31262;SDS011;17892;52.080;9.006;2024-02-26T01:24:10;1.90;;;0.70;;
31262;SDS011;17892;52.080;9.006;2024-02-26T01:26:35;1.92;;;0.60;;
31262;SDS011;17892;52.080;9.006;2024-02-26T01:29:01;1.33;;;0.50;;
31262;SDS011;17892;52.080;9.006;2024-02-26T01:31:27;0.93;;;0.40;;
31262;SDS011;17892;52.080;9.006;2024-02-26T01:33:52;1.55;;;0.40;;
31262;SDS011;17892;52.080;9.006;2024-02-26T01:36:18;1.48;;;0.50;;
31262;SDS011;17892;52.080;9.006;2024-02-26T01:38:45;2.08;;;0.73;;
31262;SDS011;17892;52.080;9.006;2024-02-26T01:41:10;1.63;;;0.55;;
31262;SDS011;17892;52.080;9.006;2024-02-26T01:43:36;1.02;;;0.40;;
31262;SDS011;17892;52.080;9.006;2024-02-26T01:46:02;1.08;;;0.45;;
31262;SDS011;17892;52.080;9.006;2024-02-26T01:48:28;1.48;;;0.60;;
31262;SDS011;17892;52.080;9.006;2024-02-26T01:50:54;1.48;;;0.65;;
31262;SDS011;17892;52.080;9.006;2024-02-26T01:53:20;1.30;;;0.55;;
31262;SDS011;17892;52.080;9.006;2024-02-26T01:55:46;1.17;;;0.50;;
31262;SDS011;17892;52.080;9.006;2024-02-26T01:58:12;1.00;;;0.50;;
31262;SDS011;17892;52.080;9.006;2024-02-26T02:00:38;0.90;;;0.40;;
31262;SDS011;17892;52.080;9.006;2024-02-26T02:03:04;2.55;;;0.60;;
31262;SDS011;17892;52.080;9.006;2024-02-26T02:05:31;1.80;;;0.40;;
31262;SDS011;17892;52.080;9.006;2024-02-26T02:07:58;3.30;;;0.55;;
31262;SDS011;17892;52.080;9.006;2024-02-26T02:10:24;1.05;;;0.32;;
31262;SDS011;17892;52.080;9.006;2024-02-26T02:12:51;1.35;;;0.40;;
31262;SDS011;17892;52.080;9.006;2024-02-26T02:15:17;1.58;;;0.52;;
31262;SDS011;17892;52.080;9.006;2024-02-26T02:17:43;1.52;;;0.50;;
31262;SDS011;17892;52.080;9.006;2024-02-26T02:20:15;2.00;;;0.43;;
31262;SDS011;17892;52.080;9.006;2024-02-26T02:22:44;0.90;;;0.40;;
31262;SDS011;17892;52.080;9.006;2024-02-26T02:25:10;1.30;;;0.50;;
31262;SDS011;17892;52.080;9.006;2024-02-26T02:27:36;1.60;;;0.70;;
31262;SDS011;17892;52.080;9.006;2024-02-26T02:30:02;1.25;;;0.40;;
31262;SDS011;17892;52.080;9.006;2024-02-26T02:32:29;1.30;;;0.40;;
31262;SDS011;17892;52.080;9.006;2024-02-26T02:34:55;1.40;;;0.40;;
31262;SDS011;17892;52.080;9.006;2024-02-26T02:37:21;1.05;;;0.40;;
31262;SDS011;17892;52.080;9.006;2024-02-26T02:39:47;0.50;;;0.25;;
31262;SDS011;17892;52.080;9.006;2024-02-26T02:42:13;1.00;;;0.50;;
31262;SDS011;17892;52.080;9.006;2024-02-26T02:44:38;0.77;;;0.30;;
31262;SDS011;17892;52.080;9.006;2024-02-26T02:47:04;0.80;;;0.40;;
31262;SDS011;17892;52.080;9.006;2024-02-26T02:49:30;1.50;;;0.52;;
31262;SDS011;17892;52.080;9.006;2024-02-26T02:51:55;1.35;;;0.40;;
31262;SDS011;17892;52.080;9.006;2024-02-26T02:54:22;2.15;;;0.50;;
31262;SDS011;17892;52.080;9.006;2024-02-26T02:56:48;2.10;;;0.45;;
31262;SDS011;17892;52.080;9.006;2024-02-26T02:59:14;2.22;;;0.50;;
31262;SDS011;17892;52.080;9.006;2024-02-26T03:01:39;1.15;;;0.60;;
31262;SDS011;17892;52.080;9.006;2024-02-26T03:04:05;0.47;;;0.20;;
31262;SDS011;17892;52.080;9.006;2024-02-26T03:06:31;1.38;;;0.43;;
31262;SDS011;17892;52.080;9.006;2024-02-26T03:08:56;1.15;;;0.40;;
31262;SDS011;17892;52.080;9.006;2024-02-26T03:11:22;1.00;;;0.40;;
31262;SDS011;17892;52.080;9.006;2024-02-26T03:13:48;0.85;;;0.30;;
31262;SDS011;17892;52.080;9.006;2024-02-26T03:16:13;0.45;;;0.20;;
31262;SDS011;17892;52.080;9.006;2024-02-26T03:18:39;1.63;;;0.30;;
31262;SDS011;17892;52.080;9.006;2024-02-26T03:21:05;0.75;;;0.40;;
31262;SDS011;17892;52.080;9.006;2024-02-26T03:23:31;0.50;;;0.20;;
31262;SDS011;17892;52.080;9.006;2024-02-26T03:26:01;0.82;;;0.25;;
31262;SDS011;17892;52.080;9.006;2024-02-26T03:28:30;0.98;;;0.43;;
31262;SDS011;17892;52.080;9.006;2024-02-26T03:30:58;0.60;;;0.28;;
31262;SDS011;17892;52.080;9.006;2024-02-26T03:33:24;0.85;;;0.30;;
31262;SDS011;17892;52.080;9.006;2024-02-26T03:35:50;1.33;;;0.45;;
31262;SDS011;17892;52.080;9.006;2024-02-26T03:38:16;1.55;;;0.32;;
31262;SDS011;17892;52.080;9.006;2024-02-26T03:40:41;0.88;;;0.40;;
31262;SDS011;17892;52.080;9.006;2024-02-26T03:43:07;1.20;;;0.40;;
31262;SDS011;17892;52.080;9.006;2024-02-26T03:45:33;1.02;;;0.30;;
31262;SDS011;17892;52.080;9.006;2024-02-26T03:47:59;2.03;;;0.50;;
31262;SDS011;17892;52.080;9.006;2024-02-26T03:50:24;1.58;;;0.40;;
31262;SDS011;17892;52.080;9.006;2024-02-26T03:52:50;1.20;;;0.40;;
31262;SDS011;17892;52.080;9.006;2024-02-26T03:55:16;1.05;;;0.35;;
31262;SDS011;17892;52.080;9.006;2024-02-26T04:00:11;0.70;;;0.38;;
31262;SDS011;17892;52.080;9.006;2024-02-26T04:02:38;2.50;;;0.70;;
31262;SDS011;17892;52.080;9.006;2024-02-26T04:05:04;1.23;;;0.40;;
31262;SDS011;17892;52.080;9.006;2024-02-26T04:07:30;2.17;;;0.45;;
31262;SDS011;17892;52.080;9.006;2024-02-26T04:09:56;0.75;;;0.40;;
31262;SDS011;17892;52.080;9.006;2024-02-26T04:12:22;0.75;;;0.30;;
31262;SDS011;17892;52.080;9.006;2024-02-26T04:14:47;1.13;;;0.30;;
31262;SDS011;17892;52.080;9.006;2024-02-26T04:17:13;0.95;;;0.40;;
31262;SDS011;17892;52.080;9.006;2024-02-26T04:19:38;1.38;;;0.30;;
31262;SDS011;17892;52.080;9.006;2024-02-26T04:22:04;0.93;;;0.30;;
31262;SDS011;17892;52.080;9.006;2024-02-26T04:24:30;1.35;;;0.35;;
31262;SDS011;17892;52.080;9.006;2024-02-26T04:26:55;1.20;;;0.40;;
31262;SDS011;17892;52.080;9.006;2024-02-26T04:29:21;0.73;;;0.30;;
31262;SDS011;17892;52.080;9.006;2024-02-26T04:31:47;1.00;;;0.38;;
31262;SDS011;17892;52.080;9.006;2024-02-26T04:34:13;1.58;;;0.43;;
31262;SDS011;17892;52.080;9.006;2024-02-26T04:36:38;0.63;;;0.30;;
31262;SDS011;17892;52.080;9.006;2024-02-26T04:39:04;0.55;;;0.20;;
31262;SDS011;17892;52.080;9.006;2024-02-26T04:41:30;0.40;;;0.20;;
31262;SDS011;17892;52.080;9.006;2024-02-26T04:43:55;0.55;;;0.30;;
31262;SDS011;17892;52.080;9.006;2024-02-26T04:46:21;1.42;;;0.65;;
31262;SDS011;17892;52.080;9.006;2024-02-26T04:48:49;0.55;;;0.20;;
31262;SDS011;17892;52.080;9.006;2024-02-26T04:51:15;0.55;;;0.10;;
31262;SDS011;17892;52.080;9.006;2024-02-26T04:53:40;0.40;;;0.17;;
31262;SDS011;17892;52.080;9.006;2024-02-26T04:56:06;0.77;;;0.20;;
31262;SDS011;17892;52.080;9.006;2024-02-26T04:58:32;0.50;;;0.20;;
31262;SDS011;17892;52.080;9.006;2024-02-26T05:00:57;0.73;;;0.30;;
31262;SDS011;17892;52.080;9.006;2024-02-26T05:03:23;0.50;;;0.20;;
31262;SDS011;17892;52.080;9.006;2024-02-26T05:05:48;0.73;;;0.22;;
31262;SDS011;17892;52.080;9.006;2024-02-26T05:08:14;1.08;;;0.20;;
31262;SDS011;17892;52.080;9.006;2024-02-26T05:10:40;1.90;;;0.30;;
31262;SDS011;17892;52.080;9.006;2024-02-26T05:13:06;0.77;;;0.30;;
31262;SDS011;17892;52.080;9.006;2024-02-26T05:15:32;0.88;;;0.28;;
31262;SDS011;17892;52.080;9.006;2024-02-26T05:17:58;0.68;;;0.20;;
31262;SDS011;17892;52.080;9.006;2024-02-26T05:20:24;0.90;;;0.30;;
31262;SDS011;17892;52.080;9.006;2024-02-26T05:22:50;0.82;;;0.30;;
31262;SDS011;17892;52.080;9.006;2024-02-26T05:25:15;1.35;;;0.50;;
31262;SDS011;17892;52.080;9.006;2024-02-26T05:27:42;1.92;;;0.32;;
31262;SDS011;17892;52.080;9.006;2024-02-26T05:30:09;0.68;;;0.20;;
31262;SDS011;17892;52.080;9.006;2024-02-26T05:32:36;0.73;;;0.32;;
31262;SDS011;17892;52.080;9.006;2024-02-26T05:35:02;2.33;;;0.45;;
31262;SDS011;17892;52.080;9.006;2024-02-26T05:37:28;2.03;;;0.20;;
31262;SDS011;17892;52.080;9.006;2024-02-26T05:39:54;1.67;;;0.50;;
31262;SDS011;17892;52.080;9.006;2024-02-26T05:42:20;1.48;;;0.50;;
31262;SDS011;17892;52.080;9.006;2024-02-26T05:44:46;2.67;;;0.50;;
31262;SDS011;17892;52.080;9.006;2024-02-26T05:47:11;0.63;;;0.30;;
31262;SDS011;17892;52.080;9.006;2024-02-26T05:49:38;0.82;;;0.22;;
31262;SDS011;17892;52.080;9.006;2024-02-26T05:52:04;0.82;;;0.30;;
31262;SDS011;17892;52.080;9.006;2024-02-26T05:54:30;0.75;;;0.40;;
31262;SDS011;17892;52.080;9.006;2024-02-26T05:56:56;0.75;;;0.30;;
31262;SDS011;17892;52.080;9.006;2024-02-26T05:59:22;0.65;;;0.20;;
31262;SDS011;17892;52.080;9.006;2024-02-26T06:01:48;2.42;;;0.30;;
31262;SDS011;17892;52.080;9.006;2024-02-26T06:04:14;0.95;;;0.25;;
31262;SDS011;17892;52.080;9.006;2024-02-26T06:06:40;0.98;;;0.40;;
31262;SDS011;17892;52.080;9.006;2024-02-26T06:09:05;1.20;;;0.45;;
31262;SDS011;17892;52.080;9.006;2024-02-26T06:11:32;1.55;;;0.60;;
31262;SDS011;17892;52.080;9.006;2024-02-26T06:13:57;1.70;;;0.60;;
31262;SDS011;17892;52.080;9.006;2024-02-26T06:16:23;1.30;;;0.52;;
31262;SDS011;17892;52.080;9.006;2024-02-26T06:18:49;1.33;;;0.50;;
31262;SDS011;17892;52.080;9.006;2024-02-26T06:21:14;1.40;;;0.50;;
31262;SDS011;17892;52.080;9.006;2024-02-26T06:23:40;2.50;;;0.70;;
31262;SDS011;17892;52.080;9.006;2024-02-26T06:26:06;1.40;;;0.60;;
31262;SDS011;17892;52.080;9.006;2024-02-26T06:28:31;1.48;;;0.55;;
31262;SDS011;17892;52.080;9.006;2024-02-26T06:30:58;1.63;;;0.77;;
31262;SDS011;17892;52.080;9.006;2024-02-26T06:33:24;3.13;;;0.77;;
31262;SDS011;17892;52.080;9.006;2024-02-26T06:35:50;2.08;;;0.70;;
31262;SDS011;17892;52.080;9.006;2024-02-26T06:38:16;2.40;;;0.70;;
31262;SDS011;17892;52.080;9.006;2024-02-26T06:40:42;2.40;;;1.10;;
31262;SDS011;17892;52.080;9.006;2024-02-26T06:43:09;1.60;;;0.60;;
31262;SDS011;17892;52.080;9.006;2024-02-26T06:45:34;1.95;;;0.75;;
31262;SDS011;17892;52.080;9.006;2024-02-26T06:48:00;2.33;;;0.90;;
31262;SDS011;17892;52.080;9.006;2024-02-26T06:50:27;2.30;;;0.73;;
31262;SDS011;17892;52.080;9.006;2024-02-26T06:52:53;1.88;;;0.70;;
31262;SDS011;17892;52.080;9.006;2024-02-26T06:55:18;1.45;;;0.60;;
31262;SDS011;17892;52.080;9.006;2024-02-26T06:57:44;1.70;;;0.70;;
31262;SDS011;17892;52.080;9.006;2024-02-26T07:00:10;1.75;;;0.77;;
31262;SDS011;17892;52.080;9.006;2024-02-26T07:05:05;2.28;;;0.90;;
31262;SDS011;17892;52.080;9.006;2024-02-26T07:07:32;3.70;;;1.40;;
31262;SDS011;17892;52.080;9.006;2024-02-26T07:09:57;2.50;;;1.27;;
31262;SDS011;17892;52.080;9.006;2024-02-26T07:12:23;3.85;;;1.15;;
31262;SDS011;17892;52.080;9.006;2024-02-26T07:14:49;3.33;;;1.63;;
31262;SDS011;17892;52.080;9.006;2024-02-26T07:17:15;3.38;;;1.50;;
31262;SDS011;17892;52.080;9.006;2024-02-26T07:19:41;2.60;;;1.17;;
31262;SDS011;17892;52.080;9.006;2024-02-26T07:22:07;3.42;;;1.50;;
31262;SDS011;17892;52.080;9.006;2024-02-26T07:24:33;3.22;;;1.38;;
31262;SDS011;17892;52.080;9.006;2024-02-26T07:26:58;3.78;;;1.48;;
31262;SDS011;17892;52.080;9.006;2024-02-26T07:29:24;3.83;;;1.80;;
31262;SDS011;17892;52.080;9.006;2024-02-26T07:31:50;3.47;;;1.67;;
31262;SDS011;17892;52.080;9.006;2024-02-26T07:34:15;4.10;;;1.95;;
31262;SDS011;17892;52.080;9.006;2024-02-26T07:36:42;5.43;;;2.00;;
31262;SDS011;17892;52.080;9.006;2024-02-26T07:39:07;4.78;;;2.50;;
31262;SDS011;17892;52.080;9.006;2024-02-26T07:41:33;5.63;;;2.70;;
31262;SDS011;17892;52.080;9.006;2024-02-26T07:43:59;7.05;;;2.67;;
31262;SDS011;17892;52.080;9.006;2024-02-26T07:46:24;6.10;;;2.85;;
31262;SDS011;17892;52.080;9.006;2024-02-26T07:48:50;7.05;;;2.55;;
31262;SDS011;17892;52.080;9.006;2024-02-26T07:51:16;6.10;;;2.65;;
31262;SDS011;17892;52.080;9.006;2024-02-26T07:53:42;4.53;;;2.65;;
31262;SDS011;17892;52.080;9.006;2024-02-26T07:56:08;6.47;;;3.33;;
31262;SDS011;17892;52.080;9.006;2024-02-26T07:58:34;5.75;;;2.83;;
31262;SDS011;17892;52.080;9.006;2024-02-26T08:01:00;5.30;;;3.17;;
31262;SDS011;17892;52.080;9.006;2024-02-26T08:03:26;5.18;;;2.67;;
31262;SDS011;17892;52.080;9.006;2024-02-26T08:05:52;5.35;;;2.83;;
31262;SDS011;17892;52.080;9.006;2024-02-26T08:08:18;5.78;;;3.20;;
31262;SDS011;17892;52.080;9.006;2024-02-26T08:10:43;6.22;;;3.20;;
31262;SDS011;17892;52.080;9.006;2024-02-26T08:13:09;6.38;;;3.42;;
31262;SDS011;17892;52.080;9.006;2024-02-26T08:15:35;5.20;;;2.90;;
31262;SDS011;17892;52.080;9.006;2024-02-26T08:18:04;5.40;;;2.42;;
31262;SDS011;17892;52.080;9.006;2024-02-26T08:20:30;5.50;;;2.75;;
31262;SDS011;17892;52.080;9.006;2024-02-26T08:22:57;7.70;;;3.42;;
31262;SDS011;17892;52.080;9.006;2024-02-26T08:25:23;7.05;;;3.22;;
31262;SDS011;17892;52.080;9.006;2024-02-26T08:27:49;5.18;;;2.72;;
31262;SDS011;17892;52.080;9.006;2024-02-26T08:30:15;5.65;;;2.95;;
31262;SDS011;17892;52.080;9.006;2024-02-26T08:32:45;5.75;;;2.85;;
31262;SDS011;17892;52.080;9.006;2024-02-26T08:35:12;6.13;;;2.95;;
31262;SDS011;17892;52.080;9.006;2024-02-26T08:37:38;5.03;;;2.97;;
31262;SDS011;17892;52.080;9.006;2024-02-26T08:40:04;6.15;;;2.88;;
31262;SDS011;17892;52.080;9.006;2024-02-26T08:42:31;5.40;;;2.70;;
31262;SDS011;17892;52.080;9.006;2024-02-26T08:44:57;4.43;;;2.60;;
31262;SDS011;17892;52.080;9.006;2024-02-26T08:47:25;4.90;;;2.30;;
31262;SDS011;17892;52.080;9.006;2024-02-26T08:49:51;5.13;;;2.17;;
31262;SDS011;17892;52.080;9.006;2024-02-26T08:52:17;5.13;;;2.33;;
31262;SDS011;17892;52.080;9.006;2024-02-26T08:54:43;4.68;;;2.10;;
31262;SDS011;17892;52.080;9.006;2024-02-26T08:57:08;5.53;;;2.67;;
31262;SDS011;17892;52.080;9.006;2024-02-26T08:59:34;4.88;;;2.22;;
31262;SDS011;17892;52.080;9.006;2024-02-26T09:02:00;4.95;;;2.40;;
31262;SDS011;17892;52.080;9.006;2024-02-26T09:04:26;8.85;;;2.50;;
31262;SDS011;17892;52.080;9.006;2024-02-26T09:06:52;5.07;;;2.28;;
31262;SDS011;17892;52.080;9.006;2024-02-26T09:09:18;4.03;;;1.85;;
31262;SDS011;17892;52.080;9.006;2024-02-26T09:11:47;5.10;;;2.47;;
31262;SDS011;17892;52.080;9.006;2024-02-26T09:14:16;4.45;;;2.20;;
31262;SDS011;17892;52.080;9.006;2024-02-26T09:16:42;4.03;;;2.08;;
31262;SDS011;17892;52.080;9.006;2024-02-26T09:19:08;3.63;;;1.85;;
31262;SDS011;17892;52.080;9.006;2024-02-26T09:21:34;5.55;;;2.00;;
31262;SDS011;17892;52.080;9.006;2024-02-26T09:24:00;4.10;;;2.00;;
31262;SDS011;17892;52.080;9.006;2024-02-26T09:26:25;4.40;;;2.10;;
31262;SDS011;17892;52.080;9.006;2024-02-26T09:28:51;3.88;;;1.92;;
31262;SDS011;17892;52.080;9.006;2024-02-26T09:31:17;4.28;;;1.90;;
31262;SDS011;17892;52.080;9.006;2024-02-26T09:33:43;4.05;;;1.88;;
31262;SDS011;17892;52.080;9.006;2024-02-26T09:36:09;4.97;;;2.45;;
31262;SDS011;17892;52.080;9.006;2024-02-26T09:38:36;4.60;;;2.53;;
31262;SDS011;17892;52.080;9.006;2024-02-26T09:41:06;4.43;;;2.35;;
31262;SDS011;17892;52.080;9.006;2024-02-26T09:43:35;5.78;;;2.70;;
31262;SDS011;17892;52.080;9.006;2024-02-26T09:46:07;4.18;;;2.42;;
31262;SDS011;17892;52.080;9.006;2024-02-26T09:48:34;4.97;;;2.97;;
31262;SDS011;17892;52.080;9.006;2024-02-26T09:51:01;4.72;;;2.42;;
31262;SDS011;17892;52.080;9.006;2024-02-26T09:53:29;5.40;;;2.65;;
31262;SDS011;17892;52.080;9.006;2024-02-26T09:56:01;5.53;;;2.42;;
31262;SDS011;17892;52.080;9.006;2024-02-26T09:58:27;5.57;;;2.60;;
31262;SDS011;17892;52.080;9.006;2024-02-26T10:00:56;6.30;;;2.70;;
31262;SDS011;17892;52.080;9.006;2024-02-26T10:03:27;5.93;;;2.80;;
31262;SDS011;17892;52.080;9.006;2024-02-26T10:05:57;5.25;;;2.88;;
31262;SDS011;17892;52.080;9.006;2024-02-26T10:08:24;6.18;;;3.20;;
31262;SDS011;17892;52.080;9.006;2024-02-26T10:10:51;7.28;;;4.00;;
31262;SDS011;17892;52.080;9.006;2024-02-26T10:13:18;6.25;;;3.55;;
31262;SDS011;17892;52.080;9.006;2024-02-26T10:15:45;8.13;;;4.03;;
31262;SDS011;17892;52.080;9.006;2024-02-26T10:18:11;6.00;;;3.40;;
31262;SDS011;17892;52.080;9.006;2024-02-26T10:20:36;5.55;;;3.17;;
31262;SDS011;17892;52.080;9.006;2024-02-26T10:23:03;4.90;;;2.95;;
31262;SDS011;17892;52.080;9.006;2024-02-26T10:25:30;6.70;;;3.50;;
31262;SDS011;17892;52.080;9.006;2024-02-26T10:27:59;8.60;;;3.67;;
31262;SDS011;17892;52.080;9.006;2024-02-26T10:30:28;5.13;;;2.75;;
31262;SDS011;17892;52.080;9.006;2024-02-26T10:32:55;4.75;;;2.60;;
31262;SDS011;17892;52.080;9.006;2024-02-26T10:35:22;5.90;;;3.45;;
31262;SDS011;17892;52.080;9.006;2024-02-26T10:37:51;5.70;;;2.75;;
31262;SDS011;17892;52.080;9.006;2024-02-26T10:40:17;6.85;;;2.92;;
31262;SDS011;17892;52.080;9.006;2024-02-26T10:42:43;5.45;;;3.03;;
31262;SDS011;17892;52.080;9.006;2024-02-26T10:45:10;5.55;;;2.72;;
31262;SDS011;17892;52.080;9.006;2024-02-26T10:47:36;5.65;;;3.13;;
31262;SDS011;17892;52.080;9.006;2024-02-26T10:50:03;8.32;;;3.80;;
31262;SDS011;17892;52.080;9.006;2024-02-26T10:52:34;6.57;;;3.85;;
31262;SDS011;17892;52.080;9.006;2024-02-26T10:55:02;8.30;;;4.10;;
31262;SDS011;17892;52.080;9.006;2024-02-26T10:57:32;7.07;;;3.70;;
31262;SDS011;17892;52.080;9.006;2024-02-26T11:00:02;7.35;;;4.10;;
31262;SDS011;17892;52.080;9.006;2024-02-26T11:02:30;6.88;;;3.63;;
31262;SDS011;17892;52.080;9.006;2024-02-26T11:05:04;6.80;;;3.63;;
31262;SDS011;17892;52.080;9.006;2024-02-26T11:07:32;7.55;;;3.95;;
31262;SDS011;17892;52.080;9.006;2024-02-26T11:10:04;8.15;;;3.75;;
31262;SDS011;17892;52.080;9.006;2024-02-26T11:12:34;6.35;;;3.25;;
31262;SDS011;17892;52.080;9.006;2024-02-26T11:15:02;5.88;;;3.20;;
31262;SDS011;17892;52.080;9.006;2024-02-26T11:17:29;6.20;;;3.47;;
31262;SDS011;17892;52.080;9.006;2024-02-26T11:19:57;5.95;;;3.42;;
31262;SDS011;17892;52.080;9.006;2024-02-26T11:22:24;5.32;;;3.30;;
31262;SDS011;17892;52.080;9.006;2024-02-26T11:24:54;6.35;;;3.25;;
31262;SDS011;17892;52.080;9.006;2024-02-26T11:27:44;5.32;;;3.10;;
31262;SDS011;17892;52.080;9.006;2024-02-26T11:30:15;7.72;;;3.25;;
31262;SDS011;17892;52.080;9.006;2024-02-26T11:32:46;4.72;;;2.65;;
31262;SDS011;17892;52.080;9.006;2024-02-26T11:35:12;5.57;;;2.88;;
31262;SDS011;17892;52.080;9.006;2024-02-26T11:37:53;4.55;;;2.03;;
31262;SDS011;17892;52.080;9.006;2024-02-26T11:40:22;4.00;;;2.08;;
31262;SDS011;17892;52.080;9.006;2024-02-26T11:42:51;3.80;;;1.77;;
31262;SDS011;17892;52.080;9.006;2024-02-26T11:48:15;5.00;;;2.17;;
31262;SDS011;17892;52.080;9.006;2024-02-26T11:50:52;3.70;;;1.60;;
31262;SDS011;17892;52.080;9.006;2024-02-26T11:53:20;4.20;;;2.10;;
31262;SDS011;17892;52.080;9.006;2024-02-26T11:55:46;3.38;;;1.80;;
31262;SDS011;17892;52.080;9.006;2024-02-26T11:58:12;4.35;;;1.80;;
31262;SDS011;17892;52.080;9.006;2024-02-26T12:00:39;4.45;;;1.83;;
31262;SDS011;17892;52.080;9.006;2024-02-26T12:03:06;2.90;;;1.45;;
31262;SDS011;17892;52.080;9.006;2024-02-26T12:05:33;3.03;;;1.40;;
31262;SDS011;17892;52.080;9.006;2024-02-26T12:08:03;4.18;;;1.58;;
31262;SDS011;17892;52.080;9.006;2024-02-26T12:10:35;2.50;;;1.10;;
31262;SDS011;17892;52.080;9.006;2024-02-26T12:15:37;2.47;;;1.23;;
31262;SDS011;17892;52.080;9.006;2024-02-26T12:18:05;3.83;;;1.42;;
31262;SDS011;17892;52.080;9.006;2024-02-26T12:20:34;2.55;;;1.17;;
31262;SDS011;17892;52.080;9.006;2024-02-26T12:23:00;2.90;;;1.30;;
31262;SDS011;17892;52.080;9.006;2024-02-26T12:25:29;2.72;;;1.13;;
31262;SDS011;17892;52.080;9.006;2024-02-26T12:27:56;3.22;;;1.40;;
31262;SDS011;17892;52.080;9.006;2024-02-26T12:30:23;3.15;;;1.45;;
31262;SDS011;17892;52.080;9.006;2024-02-26T12:32:51;3.03;;;1.38;;
31262;SDS011;17892;52.080;9.006;2024-02-26T12:35:21;2.60;;;1.13;;
31262;SDS011;17892;52.080;9.006;2024-02-26T12:37:49;2.67;;;1.20;;
31262;SDS011;17892;52.080;9.006;2024-02-26T12:40:16;2.97;;;1.17;;
31262;SDS011;17892;52.080;9.006;2024-02-26T12:42:42;3.63;;;1.33;;
31262;SDS011;17892;52.080;9.006;2024-02-26T12:45:12;2.30;;;1.23;;
31262;SDS011;17892;52.080;9.006;2024-02-26T12:47:39;2.75;;;1.13;;
31262;SDS011;17892;52.080;9.006;2024-02-26T12:50:06;3.58;;;1.08;;
31262;SDS011;17892;52.080;9.006;2024-02-26T12:52:35;2.65;;;0.95;;
31262;SDS011;17892;52.080;9.006;2024-02-26T12:55:05;2.72;;;1.25;;
31262;SDS011;17892;52.080;9.006;2024-02-26T12:57:38;2.72;;;1.20;;
31262;SDS011;17892;52.080;9.006;2024-02-26T13:00:05;2.85;;;1.23;;
31262;SDS011;17892;52.080;9.006;2024-02-26T13:02:36;2.28;;;0.98;;
31262;SDS011;17892;52.080;9.006;2024-02-26T13:05:06;2.88;;;1.20;;
31262;SDS011;17892;52.080;9.006;2024-02-26T13:07:33;2.72;;;1.30;;
31262;SDS011;17892;52.080;9.006;2024-02-26T13:10:00;2.30;;;1.08;;
31262;SDS011;17892;52.080;9.006;2024-02-26T13:12:26;2.38;;;1.00;;
31262;SDS011;17892;52.080;9.006;2024-02-26T13:15:02;3.00;;;1.30;;
31262;SDS011;17892;52.080;9.006;2024-02-26T13:17:31;2.95;;;1.30;;
31262;SDS011;17892;52.080;9.006;2024-02-26T13:19:57;2.28;;;0.98;;
31262;SDS011;17892;52.080;9.006;2024-02-26T13:22:23;2.33;;;0.93;;
31262;SDS011;17892;52.080;9.006;2024-02-26T13:24:56;2.90;;;1.30;;
31262;SDS011;17892;52.080;9.006;2024-02-26T13:27:23;3.25;;;1.10;;
31262;SDS011;17892;52.080;9.006;2024-02-26T13:30:01;2.15;;;0.93;;
31262;SDS011;17892;52.080;9.006;2024-02-26T13:32:27;2.55;;;1.00;;
31262;SDS011;17892;52.080;9.006;2024-02-26T13:35:04;2.45;;;1.13;;
31262;SDS011;17892;52.080;9.006;2024-02-26T13:37:37;3.00;;;1.30;;
31262;SDS011;17892;52.080;9.006;2024-02-26T13:40:08;2.08;;;1.00;;
31262;SDS011;17892;52.080;9.006;2024-02-26T13:42:35;2.88;;;1.10;;
31262;SDS011;17892;52.080;9.006;2024-02-26T13:45:02;2.70;;;1.23;;
31262;SDS011;17892;52.080;9.006;2024-02-26T13:47:31;2.75;;;1.40;;
31262;SDS011;17892;52.080;9.006;2024-02-26T13:50:00;3.20;;;1.70;;
31262;SDS011;17892;52.080;9.006;2024-02-26T13:52:27;2.95;;;1.30;;
31262;SDS011;17892;52.080;9.006;2024-02-26T13:54:53;3.38;;;1.73;;
31262;SDS011;17892;52.080;9.006;2024-02-26T13:57:19;2.97;;;1.38;;
31262;SDS011;17892;52.080;9.006;2024-02-26T13:59:45;3.05;;;1.15;;
31262;SDS011;17892;52.080;9.006;2024-02-26T14:02:11;2.72;;;1.30;;
31262;SDS011;17892;52.080;9.006;2024-02-26T14:04:37;3.00;;;1.20;;
31262;SDS011;17892;52.080;9.006;2024-02-26T14:07:03;3.70;;;1.52;;
31262;SDS011;17892;52.080;9.006;2024-02-26T14:09:30;3.17;;;1.60;;
31262;SDS011;17892;52.080;9.006;2024-02-26T14:11:57;3.30;;;1.52;;
31262;SDS011;17892;52.080;9.006;2024-02-26T14:14:25;3.83;;;1.95;;
31262;SDS011;17892;52.080;9.006;2024-02-26T14:16:57;2.97;;;1.45;;
31262;SDS011;17892;52.080;9.006;2024-02-26T14:19:24;2.40;;;1.35;;
31262;SDS011;17892;52.080;9.006;2024-02-26T14:21:49;4.28;;;1.70;;
31262;SDS011;17892;52.080;9.006;2024-02-26T14:24:15;4.03;;;1.90;;
31262;SDS011;17892;52.080;9.006;2024-02-26T14:26:41;3.88;;;1.85;;
31262;SDS011;17892;52.080;9.006;2024-02-26T14:29:07;3.42;;;2.25;;
31262;SDS011;17892;52.080;9.006;2024-02-26T14:31:32;3.25;;;1.67;;
31262;SDS011;17892;52.080;9.006;2024-02-26T14:33:58;4.82;;;1.90;;
31262;SDS011;17892;52.080;9.006;2024-02-26T14:36:24;5.40;;;2.00;;
31262;SDS011;17892;52.080;9.006;2024-02-26T14:38:50;3.90;;;1.83;;
31262;SDS011;17892;52.080;9.006;2024-02-26T14:41:16;3.47;;;1.80;;
31262;SDS011;17892;52.080;9.006;2024-02-26T14:43:42;4.22;;;1.92;;
31262;SDS011;17892;52.080;9.006;2024-02-26T14:46:08;3.97;;;1.85;;
31262;SDS011;17892;52.080;9.006;2024-02-26T14:48:34;3.75;;;1.90;;
31262;SDS011;17892;52.080;9.006;2024-02-26T14:51:00;3.47;;;1.70;;
31262;SDS011;17892;52.080;9.006;2024-02-26T14:53:26;3.58;;;1.83;;
31262;SDS011;17892;52.080;9.006;2024-02-26T14:55:52;3.72;;;1.80;;